createdAt,value
2019-03-21T00:04:24.016Z,16.65
2019-03-21T00:09:26.903Z,15.28
2019-03-21T00:14:56.366Z,18.42
2019-03-21T00:20:00.495Z,18.05
2019-03-21T00:25:03.297Z,19.70
2019-03-21T00:30:10.700Z,19.90
2019-03-21T00:35:13.565Z,19.20
2019-03-21T00:40:19.219Z,18.10
2019-03-21T00:45:21.801Z,13.60
2019-03-21T00:50:25.103Z,21.97
2019-03-21T00:55:28.722Z,19.55
2019-03-21T01:00:34.560Z,15.90
2019-03-21T01:05:37.309Z,15.63
2019-03-21T01:10:39.952Z,14.78
2019-03-21T01:15:42.542Z,20.57
2019-03-21T01:20:45.125Z,18.52
2019-03-21T01:25:49.555Z,21.45
2019-03-21T01:30:52.186Z,16.40
2019-03-21T01:35:54.789Z,19.55
2019-03-21T01:40:57.714Z,12.93
2019-03-21T01:46:00.486Z,14.30
2019-03-21T01:51:03.077Z,16.50
2019-03-21T01:56:05.774Z,14.13
2019-03-21T02:01:09.013Z,18.37
2019-03-21T02:06:11.624Z,17.25
2019-03-21T02:11:14.428Z,16.75
2019-03-21T02:16:17.090Z,15.53
2019-03-21T02:21:20.309Z,17.17
2019-03-21T02:26:22.918Z,14.87
2019-03-21T02:31:25.500Z,16.07
2019-03-21T02:36:28.347Z,17.92
2019-03-21T02:41:30.988Z,11.57
2019-03-21T02:46:33.605Z,16.32
2019-03-21T02:51:36.264Z,16.90
2019-03-21T02:56:39.305Z,11.33
2019-03-21T03:01:41.990Z,12.35
2019-03-21T03:06:46.546Z,12.45
2019-03-21T03:11:49.314Z,12.63
2019-03-21T03:16:51.932Z,14.60
2019-03-21T03:21:55.020Z,15.98
2019-03-21T03:26:57.640Z,14.95
2019-03-21T03:32:00.336Z,13.93
2019-03-21T03:37:03.004Z,15.70
2019-03-21T03:42:05.675Z,16.40
2019-03-21T03:47:08.412Z,13.05
2019-03-21T03:52:11.032Z,16.80
2019-03-21T03:57:15.947Z,16.95
2019-03-21T04:02:18.842Z,14.38
2019-03-21T04:07:22.003Z,15.30
2019-03-21T04:12:24.809Z,19.23
2019-03-21T04:17:27.651Z,18.17
2019-03-21T04:22:30.273Z,15.98
2019-03-21T04:27:33.257Z,20.15
2019-03-21T04:32:35.876Z,20.20
2019-03-21T04:37:38.802Z,15.18
2019-03-21T04:42:41.710Z,13.50
2019-03-21T04:47:44.743Z,16.35
2019-03-21T04:52:47.383Z,18.17
2019-03-21T04:57:50.355Z,16.48
2019-03-21T05:02:54.981Z,14.68
2019-03-21T05:07:57.596Z,17.25
2019-03-21T05:13:00.722Z,17.48
2019-03-21T05:18:12.479Z,16.12
2019-03-21T05:23:15.269Z,13.83
2019-03-21T05:28:17.886Z,16.82
2019-03-21T05:33:20.546Z,18.27
2019-03-21T05:38:23.882Z,16.07
2019-03-21T05:43:33.287Z,16.10
2019-03-21T05:48:35.909Z,17.87
2019-03-21T05:53:38.606Z,17.95
2019-03-21T05:58:41.309Z,20.08
2019-03-21T06:03:50.492Z,20.20
2019-03-21T06:08:53.112Z,19.85
2019-03-21T06:13:56.120Z,20.37
2019-03-21T06:19:18.220Z,19.42
2019-03-21T06:24:41.990Z,19.50
2019-03-21T06:29:44.714Z,24.92
2019-03-21T06:34:47.574Z,20.55
2019-03-21T06:39:50.446Z,17.48
2019-03-21T06:44:53.133Z,11.73
2019-03-21T06:49:56.013Z,16.65
2019-03-21T06:55:40.416Z,14.35
2019-03-21T07:00:40.672Z,17.48
2019-03-21T07:05:43.291Z,20.52
2019-03-21T07:10:46.270Z,14.05
2019-03-21T07:15:49.112Z,15.15
2019-03-21T07:20:52.001Z,17.80
2019-03-21T07:25:54.633Z,15.38
2019-03-21T07:30:57.240Z,16.07
2019-03-21T07:36:00.175Z,13.35
2019-03-21T07:41:02.813Z,13.70
2019-03-21T07:46:05.767Z,14.53
2019-03-21T07:51:09.034Z,14.18
2019-03-21T07:56:11.616Z,13.48
2019-03-21T08:01:14.276Z,11.50
2019-03-21T08:06:17.156Z,9.75
2019-03-21T08:11:19.689Z,15.58
2019-03-21T08:16:22.644Z,14.00
2019-03-21T08:21:25.257Z,12.82
2019-03-21T08:26:27.855Z,13.48
2019-03-21T08:31:30.653Z,14.87
2019-03-21T08:36:33.531Z,14.33
2019-03-21T08:41:36.226Z,15.32
2019-03-21T08:46:39.005Z,13.68
2019-03-21T08:51:42.945Z,17.65
2019-03-21T08:56:46.130Z,14.25
2019-03-21T09:01:49.076Z,11.70
2019-03-21T09:06:52.772Z,11.97
2019-03-21T09:11:55.868Z,14.35
2019-03-21T09:16:58.496Z,14.30
2019-03-21T09:22:01.383Z,12.45
2019-03-21T09:27:04.145Z,15.68
2019-03-21T09:32:06.911Z,11.70
2019-03-21T09:37:09.614Z,10.15
2019-03-21T09:42:12.568Z,10.48
2019-03-21T09:47:15.203Z,11.35
2019-03-21T09:52:17.791Z,9.35
2019-03-21T09:57:20.476Z,8.75
2019-03-21T10:02:23.157Z,13.70
2019-03-21T10:07:25.754Z,13.72
2019-03-21T10:12:28.398Z,10.68
2019-03-21T10:17:31.138Z,7.92
2019-03-21T10:22:33.739Z,14.20
2019-03-21T10:27:36.323Z,8.78
2019-03-21T10:32:39.388Z,7.75
2019-03-21T10:37:42.043Z,8.65
2019-03-21T10:42:44.823Z,7.03
2019-03-21T10:47:48.323Z,7.05
2019-03-21T10:52:51.475Z,8.05
2019-03-21T10:57:54.445Z,13.55
2019-03-21T11:02:57.210Z,11.85
2019-03-21T11:07:59.845Z,10.63
2019-03-21T11:13:02.877Z,7.05
2019-03-21T11:18:05.613Z,9.45
2019-03-21T11:23:08.784Z,9.28
2019-03-21T11:28:11.639Z,10.10
2019-03-21T11:33:14.379Z,6.45
2019-03-21T11:38:17.074Z,8.35
2019-03-21T11:43:20.079Z,7.10
2019-03-21T11:48:22.750Z,9.00
2019-03-21T11:53:25.642Z,10.70
2019-03-21T11:58:28.278Z,10.23
2019-03-21T12:03:30.957Z,8.20
2019-03-21T12:08:33.551Z,11.12
2019-03-21T12:13:36.207Z,7.37
2019-03-21T12:18:38.895Z,9.03
2019-03-21T12:23:41.725Z,9.08
2019-03-21T12:28:44.390Z,6.83
2019-03-21T12:33:47.002Z,25.25
2019-03-21T12:38:49.698Z,11.22
2019-03-21T12:43:52.895Z,12.93
2019-03-21T12:48:55.511Z,12.15
2019-03-21T12:53:58.212Z,11.65
2019-03-21T12:59:00.836Z,11.03
2019-03-21T13:04:03.652Z,8.45
2019-03-21T13:09:07.391Z,9.70
2019-03-21T13:14:10.013Z,11.45
2019-03-21T13:19:12.666Z,9.38
2019-03-21T13:24:19.205Z,12.45
2019-03-21T13:29:19.914Z,10.32
2019-03-21T13:34:22.547Z,10.95
2019-03-21T13:39:25.402Z,13.88
2019-03-21T13:44:28.124Z,15.43
2019-03-21T13:49:30.823Z,16.73
2019-03-21T13:54:33.520Z,11.60
2019-03-21T13:59:36.210Z,12.33
2019-03-21T14:04:39.108Z,10.82
2019-03-21T14:09:42.220Z,10.93
2019-03-21T14:14:44.855Z,12.07
2019-03-21T14:19:47.487Z,9.18
2019-03-21T14:24:50.413Z,10.78
2019-03-21T14:30:01.198Z,10.38
2019-03-21T14:34:57.945Z,9.93
2019-03-21T14:40:00.864Z,13.32
2019-03-21T14:45:04.813Z,9.88
2019-03-21T14:50:08.213Z,8.65
2019-03-21T14:55:12.540Z,14.23
2019-03-21T15:00:17.162Z,12.18
2019-03-21T15:05:19.914Z,15.08
2019-03-21T15:10:22.579Z,13.60
2019-03-21T15:15:25.306Z,15.45
2019-03-21T15:20:27.957Z,19.50
2019-03-21T15:25:30.659Z,20.08
2019-03-21T15:30:33.362Z,16.48
2019-03-21T15:35:36.247Z,14.63
2019-03-21T15:40:39.017Z,13.50
2019-03-21T15:45:41.704Z,14.45
2019-03-21T15:50:44.298Z,16.70
2019-03-21T15:55:47.082Z,18.85
2019-03-21T16:00:50.051Z,10.98
2019-03-21T16:05:52.640Z,8.95
2019-03-21T16:10:55.502Z,13.03
2019-03-21T16:15:58.290Z,15.38
2019-03-21T16:21:00.938Z,10.40
2019-03-21T16:26:03.839Z,14.73
2019-03-21T16:31:06.492Z,11.75
2019-03-21T16:36:09.132Z,11.53
2019-03-21T16:41:11.849Z,14.35
2019-03-21T16:46:14.485Z,11.55
2019-03-21T16:51:17.109Z,10.72
2019-03-21T16:56:19.816Z,14.28
2019-03-21T17:01:22.409Z,15.10
2019-03-21T17:06:25.440Z,10.20
2019-03-21T17:11:28.095Z,12.28
2019-03-21T17:16:30.842Z,10.80
2019-03-21T17:21:33.753Z,9.45
2019-03-21T17:26:36.643Z,12.85
2019-03-21T17:31:39.409Z,17.52
2019-03-21T17:36:42.052Z,15.65
2019-03-21T17:41:44.721Z,13.10
2019-03-21T17:46:47.350Z,11.68
2019-03-21T17:51:50.204Z,12.40
2019-03-21T17:56:52.875Z,12.88
2019-03-21T18:01:55.537Z,13.60
2019-03-21T18:06:58.408Z,16.02
2019-03-21T18:12:00.990Z,15.28
2019-03-21T18:17:03.918Z,14.35
2019-03-21T18:22:13.343Z,12.05
2019-03-21T18:27:16.067Z,13.13
2019-03-21T18:32:18.749Z,15.10
2019-03-21T18:37:21.691Z,14.45
2019-03-21T18:42:24.591Z,13.60
2019-03-21T18:47:27.157Z,13.43
2019-03-21T18:52:29.945Z,13.15
2019-03-21T18:57:32.811Z,15.00
2019-03-21T19:02:35.473Z,10.75
2019-03-21T19:07:38.213Z,11.40
2019-03-21T19:12:40.805Z,9.45
2019-03-21T19:17:43.443Z,9.73
2019-03-21T19:22:46.704Z,10.20
2019-03-21T19:27:49.370Z,10.30
2019-03-21T19:32:52.041Z,9.25
2019-03-21T19:37:54.673Z,9.33
2019-03-21T19:42:57.325Z,9.08
2019-03-21T19:48:00.322Z,10.90
2019-03-21T19:53:03.246Z,12.37
2019-03-21T19:58:05.939Z,12.53
2019-03-21T20:03:08.595Z,15.72
2019-03-21T20:08:11.604Z,13.22
2019-03-21T20:13:15.427Z,13.20
2019-03-21T20:18:18.140Z,14.45
2019-03-21T20:23:21.024Z,17.32
2019-03-21T20:28:23.798Z,13.15
2019-03-21T20:33:26.419Z,14.25
2019-03-21T20:38:29.180Z,20.02
2019-03-21T20:43:31.891Z,15.35
2019-03-21T20:48:33.017Z,15.45
2019-03-21T20:53:35.708Z,15.23
2019-03-21T20:58:38.348Z,17.23
2019-03-21T21:03:41.164Z,20.12
2019-03-21T21:08:43.962Z,21.30
2019-03-21T21:13:46.651Z,18.87
2019-03-21T21:18:49.226Z,17.70
2019-03-21T21:23:52.205Z,16.95
2019-03-21T21:28:54.842Z,16.87
2019-03-21T21:33:57.597Z,16.73
2019-03-21T21:39:00.199Z,19.45
2019-03-21T21:44:03.086Z,19.95
2019-03-21T21:49:06.132Z,25.68
2019-03-21T21:54:08.785Z,19.87
2019-03-21T21:59:11.521Z,22.80
2019-03-21T22:04:14.156Z,24.95
2019-03-21T22:09:16.875Z,22.42
2019-03-21T22:14:19.516Z,26.85
2019-03-21T22:19:22.179Z,27.70
2019-03-21T22:24:24.842Z,27.35
2019-03-21T22:29:27.739Z,24.32
2019-03-21T22:34:30.367Z,23.40
2019-03-21T22:39:32.992Z,23.65
2019-03-21T22:44:35.935Z,24.95
2019-03-21T22:49:38.707Z,26.70
2019-03-21T22:54:41.439Z,25.52
2019-03-21T22:59:44.102Z,28.05
2019-03-21T23:04:46.692Z,22.55
2019-03-21T23:09:49.434Z,24.23
2019-03-21T23:14:52.088Z,25.45
2019-03-21T23:19:54.812Z,24.77
2019-03-21T23:24:57.775Z,19.52
2019-03-21T23:30:00.367Z,25.62
2019-03-21T23:35:03.233Z,19.27
2019-03-21T23:40:06.741Z,23.98
2019-03-21T23:45:10.216Z,25.40
2019-03-21T23:50:14.370Z,22.90
2019-03-21T23:55:17.012Z,24.47
